createdAt,value
2022-10-19T00:01:14.930Z,99350.63
2022-10-19T00:03:42.289Z,99349.84
2022-10-19T00:06:19.741Z,99342.97
2022-10-19T00:08:46.215Z,99333.53
2022-10-19T00:11:12.981Z,99330.13
2022-10-19T00:13:39.893Z,99329.34
2022-10-19T00:16:12.780Z,99325.06
2022-10-19T00:18:40.540Z,99323.38
2022-10-19T00:21:09.470Z,99326.06
2022-10-19T00:23:37.144Z,99328.66
2022-10-19T00:26:03.588Z,99327.84
2022-10-19T00:28:30.345Z,99327.00
2022-10-19T00:30:56.867Z,99330.44
2022-10-19T00:33:23.532Z,99330.50
2022-10-19T00:35:51.776Z,99331.50
2022-10-19T00:38:20.602Z,99345.31
2022-10-19T00:40:47.830Z,99349.59
2022-10-19T00:43:20.749Z,99338.50
2022-10-19T00:45:47.223Z,99343.78
2022-10-19T00:48:19.421Z,99350.69
2022-10-19T00:50:48.441Z,99348.13
2022-10-19T00:53:15.333Z,99349.97
2022-10-19T00:55:42.469Z,99352.59
2022-10-19T00:58:09.876Z,99350.81
2022-10-19T01:00:36.683Z,99350.91
2022-10-19T01:03:03.887Z,99349.22
2022-10-19T01:05:32.525Z,99350.22
2022-10-19T01:07:59.034Z,99345.94
2022-10-19T01:10:40.281Z,99344.22
2022-10-19T01:13:09.738Z,99340.88
2022-10-19T01:15:55.567Z,99348.69
2022-10-19T01:18:42.590Z,99348.72
2022-10-19T01:21:26.190Z,99348.75
2022-10-19T01:24:05.445Z,99353.06
2022-10-19T01:27:05.232Z,99348.78
2022-10-19T01:29:57.080Z,99351.41
2022-10-19T01:32:41.831Z,99346.28
2022-10-19T01:35:11.733Z,99346.28
2022-10-19T01:37:48.287Z,99342.81
2022-10-19T01:40:26.831Z,99338.50
2022-10-19T01:43:21.894Z,99329.03
2022-10-19T01:46:07.023Z,99323.88
2022-10-19T01:48:37.770Z,99325.59
2022-10-19T01:51:19.498Z,99323.03
2022-10-19T01:53:53.330Z,99322.19
2022-10-19T01:56:24.650Z,99321.34
2022-10-19T01:58:52.734Z,99316.28
2022-10-19T02:01:23.032Z,99312.84
2022-10-19T02:03:51.677Z,99305.13
2022-10-19T02:06:18.731Z,99306.91
2022-10-19T02:08:48.886Z,99299.19
2022-10-19T02:11:17.084Z,99306.94
2022-10-19T02:13:46.100Z,99299.34
2022-10-19T02:16:18.003Z,99301.97
2022-10-19T02:18:50.966Z,99295.94
2022-10-19T02:21:18.303Z,99294.25
2022-10-19T02:23:46.732Z,99289.13
2022-10-19T02:26:14.036Z,99296.84
2022-10-19T02:28:40.689Z,99295.16
2022-10-19T02:31:07.357Z,99282.28
2022-10-19T02:33:33.945Z,99288.31
2022-10-19T02:36:00.928Z,99290.03
2022-10-19T02:38:28.053Z,99290.06
2022-10-19T02:41:04.219Z,99284.94
2022-10-19T02:43:34.946Z,99283.25
2022-10-19T02:46:08.084Z,99278.09
2022-10-19T02:48:37.922Z,99277.22
2022-10-19T02:51:04.478Z,99278.09
2022-10-19T02:53:30.932Z,99282.41
2022-10-19T02:55:57.524Z,99279.03
2022-10-19T02:58:23.928Z,99278.19
2022-10-19T03:00:50.397Z,99273.91
2022-10-19T03:03:16.865Z,99271.34
2022-10-19T03:05:43.297Z,99273.06
2022-10-19T03:08:09.709Z,99269.59
2022-10-19T03:10:36.212Z,99268.75
2022-10-19T03:13:02.678Z,99280.84
2022-10-19T03:15:29.983Z,99280.00
2022-10-19T03:17:56.733Z,99279.03
2022-10-19T03:20:23.479Z,99285.09
2022-10-19T03:22:50.302Z,99281.78
2022-10-19T03:25:16.831Z,99284.41
2022-10-19T03:27:43.226Z,99287.03
2022-10-19T03:30:10.058Z,99279.38
2022-10-19T03:32:36.461Z,99283.66
2022-10-19T03:35:02.894Z,99281.09
2022-10-19T03:37:29.301Z,99278.53
2022-10-19T03:39:55.691Z,99275.97
2022-10-19T03:42:22.086Z,99275.06
2022-10-19T03:44:48.542Z,99275.06
2022-10-19T03:47:14.982Z,99276.78
2022-10-19T03:49:43.467Z,99275.09
2022-10-19T03:52:10.191Z,99280.28
2022-10-19T03:54:36.795Z,99287.19
2022-10-19T03:57:03.307Z,99278.59
2022-10-19T03:59:29.738Z,99282.81
2022-10-19T04:01:56.214Z,99281.97
2022-10-19T04:04:22.661Z,99291.44
2022-10-19T04:06:50.099Z,99290.56
2022-10-19T04:09:19.203Z,99291.44
2022-10-19T04:11:46.085Z,99282.81
2022-10-19T04:14:26.863Z,99287.13
2022-10-19T04:16:59.905Z,99289.59
2022-10-19T04:19:26.340Z,99284.41
2022-10-19T04:21:52.838Z,99282.72
2022-10-19T04:24:19.387Z,99280.97
2022-10-19T04:26:48.406Z,99279.22
2022-10-19T04:29:16.241Z,99285.22
2022-10-19T04:31:43.065Z,99286.09
2022-10-19T04:34:09.538Z,99286.94
2022-10-19T04:36:36.250Z,99286.19
2022-10-19T04:39:03.794Z,99290.47
2022-10-19T04:41:30.971Z,99287.06
2022-10-19T04:44:03.083Z,99281.09
2022-10-19T04:46:30.245Z,99279.41
2022-10-19T04:48:57.534Z,99281.09
2022-10-19T04:51:25.255Z,99275.03
2022-10-19T04:53:53.405Z,99269.88
2022-10-19T04:56:26.368Z,99272.44
2022-10-19T04:58:56.237Z,99275.88
2022-10-19T05:01:23.413Z,99277.59
2022-10-19T05:03:54.129Z,99277.56
2022-10-19T05:06:20.668Z,99281.81
2022-10-19T05:08:48.303Z,99285.31
2022-10-19T05:11:15.365Z,99280.22
2022-10-19T05:13:42.692Z,99280.19
2022-10-19T05:16:13.316Z,99272.50
2022-10-19T05:18:40.250Z,99273.50
2022-10-19T05:21:13.077Z,99274.44
2022-10-19T05:23:40.525Z,99270.16
2022-10-19T05:26:12.545Z,99271.03
2022-10-19T05:28:39.523Z,99266.75
2022-10-19T05:31:12.165Z,99265.78
2022-10-19T05:33:39.605Z,99271.88
2022-10-19T05:36:26.233Z,99268.31
2022-10-19T05:38:54.635Z,99268.34
2022-10-19T05:41:22.240Z,99263.19
2022-10-19T05:43:53.642Z,99273.50
2022-10-19T05:46:20.099Z,99275.25
2022-10-19T05:48:47.221Z,99284.75
2022-10-19T05:51:16.579Z,99273.59
2022-10-19T05:53:43.401Z,99272.69
2022-10-19T05:56:14.605Z,99270.94
2022-10-19T05:58:41.431Z,99274.38
2022-10-19T06:01:09.378Z,99277.84
2022-10-19T06:03:36.327Z,99279.56
2022-10-19T06:06:04.799Z,99283.81
2022-10-19T06:08:31.196Z,99282.22
2022-10-19T06:11:16.028Z,99288.22
2022-10-19T06:13:44.340Z,99287.38
2022-10-19T06:16:13.720Z,99295.09
2022-10-19T06:18:40.405Z,99291.66
2022-10-19T06:21:10.193Z,99294.25
2022-10-19T06:23:37.513Z,99298.56
2022-10-19T06:26:07.267Z,99298.53
2022-10-19T06:28:34.815Z,99295.09
2022-10-19T06:31:01.818Z,99305.38
2022-10-19T06:33:30.179Z,99299.34
2022-10-19T06:35:56.678Z,99301.03
2022-10-19T06:38:23.214Z,99301.81
2022-10-19T06:40:49.681Z,99305.16
2022-10-19T06:43:16.157Z,99310.31
2022-10-19T06:45:42.603Z,99309.50
2022-10-19T06:48:09.060Z,99304.47
2022-10-19T06:50:35.572Z,99307.84
2022-10-19T06:53:02.033Z,99306.97
2022-10-19T06:55:28.566Z,99309.47
2022-10-19T06:57:55.013Z,99311.25
2022-10-19T07:00:21.489Z,99314.75
2022-10-19T07:02:47.908Z,99317.44
2022-10-19T07:05:14.443Z,99324.44
2022-10-19T07:07:40.897Z,99329.59
2022-10-19T07:10:07.581Z,99319.41
2022-10-19T07:12:34.041Z,99324.44
2022-10-19T07:15:00.491Z,99331.34
2022-10-19T07:17:26.976Z,99333.94
2022-10-19T07:19:53.504Z,99333.97
2022-10-19T07:22:24.435Z,99333.94
2022-10-19T07:24:54.653Z,99334.75
2022-10-19T07:27:21.125Z,99331.31
2022-10-19T07:29:47.539Z,99333.88
2022-10-19T07:32:13.972Z,99332.16
2022-10-19T07:34:40.503Z,99343.28
2022-10-19T07:37:07.084Z,99332.91
2022-10-19T07:39:33.535Z,99337.03
2022-10-19T07:41:59.987Z,99334.47
2022-10-19T07:44:26.871Z,99335.28
2022-10-19T07:46:58.008Z,99336.97
2022-10-19T07:49:24.529Z,99331.84
2022-10-19T07:51:54.108Z,99333.47
2022-10-19T07:54:21.411Z,99332.63
2022-10-19T07:56:47.893Z,99343.03
2022-10-19T07:59:16.206Z,99345.69
2022-10-19T08:01:44.087Z,99344.75
2022-10-19T08:06:57.003Z,99346.31
2022-10-19T08:09:50.877Z,99340.22
2022-10-19T08:12:13.979Z,99355.56
2022-10-19T08:14:41.771Z,99346.09
2022-10-19T08:17:11.702Z,99351.09
2022-10-19T08:19:43.576Z,99350.19
2022-10-19T08:22:11.506Z,99351.75
2022-10-19T08:24:38.111Z,99349.94
2022-10-19T08:27:05.158Z,99349.81
2022-10-19T08:29:32.073Z,99351.34
2022-10-19T08:31:59.374Z,99341.50
2022-10-19T08:34:26.248Z,99339.41
2022-10-19T08:36:52.707Z,99342.75
2022-10-19T08:39:19.266Z,99344.25
2022-10-19T08:42:00.970Z,99344.84
2022-10-19T08:44:33.444Z,99346.31
2022-10-19T08:47:22.338Z,99340.22
2022-10-19T08:49:50.018Z,99334.84
2022-10-19T08:52:21.395Z,99335.34
2022-10-19T08:55:15.066Z,99336.06
2022-10-19T08:58:00.155Z,99340.28
2022-10-19T09:00:43.358Z,99335.00
2022-10-19T09:03:55.569Z,99346.84
2022-10-19T09:06:37.168Z,99345.75
2022-10-19T09:09:05.782Z,99351.00
2022-10-19T09:11:41.938Z,99346.63
2022-10-19T09:14:22.710Z,99342.22
2022-10-19T09:16:49.246Z,99350.50
2022-10-19T09:19:29.172Z,99349.47
2022-10-19T09:22:06.272Z,99348.47
2022-10-19T09:24:43.893Z,99347.38
2022-10-19T09:27:39.044Z,99348.13
2022-10-19T09:30:27.060Z,99350.66
2022-10-19T09:33:01.122Z,99344.22
2022-10-19T09:35:34.132Z,99347.06
2022-10-19T09:38:00.785Z,99345.88
2022-10-19T09:40:30.167Z,99349.06
2022-10-19T09:42:58.754Z,99360.59
2022-10-19T09:45:47.705Z,99358.56
2022-10-19T09:48:41.681Z,99366.50
2022-10-19T09:51:12.290Z,99363.50
2022-10-19T09:53:44.449Z,99361.25
2022-10-19T09:56:18.930Z,99357.84
2022-10-19T09:58:55.292Z,99353.91
2022-10-19T10:01:40.151Z,99348.00
2022-10-19T10:04:18.440Z,99343.38
2022-10-19T10:06:47.972Z,99345.88
2022-10-19T10:09:17.347Z,99342.81
2022-10-19T10:11:47.983Z,99345.47
2022-10-19T10:14:23.259Z,99346.50
2022-10-19T10:16:55.918Z,99339.72
2022-10-19T10:19:27.404Z,99340.16
2022-10-19T10:21:55.761Z,99331.59
2022-10-19T10:24:24.553Z,99332.16
2022-10-19T10:26:57.811Z,99329.00
2022-10-19T10:29:34.308Z,99319.97
2022-10-19T10:32:00.684Z,99322.88
2022-10-19T10:34:49.450Z,99324.66
2022-10-19T10:37:28.352Z,99321.31
2022-10-19T10:39:59.138Z,99308.41
2022-10-19T10:42:44.680Z,99304.72
2022-10-19T10:45:33.508Z,99304.97
2022-10-19T10:48:16.068Z,99304.03
2022-10-19T10:50:43.754Z,99304.28
2022-10-19T10:53:32.065Z,99298.00
2022-10-19T10:55:58.612Z,99297.13
2022-10-19T10:58:54.900Z,99293.41
2022-10-19T11:01:29.072Z,99294.38
2022-10-19T11:04:11.060Z,99299.53
2022-10-19T11:06:54.002Z,99301.03
2022-10-19T11:09:34.461Z,99288.16
2022-10-19T11:12:08.990Z,99294.03
2022-10-19T11:14:49.327Z,99286.97
2022-10-19T11:17:23.724Z,99277.09
2022-10-19T11:19:51.380Z,99273.19
2022-10-19T11:22:27.179Z,99274.78
2022-10-19T11:25:18.571Z,99268.34
2022-10-19T11:27:57.239Z,99255.13
2022-10-19T11:30:25.082Z,99253.81
2022-10-19T11:33:03.744Z,99254.69
2022-10-19T11:35:58.039Z,99252.53
2022-10-19T11:39:03.577Z,99252.22
2022-10-19T11:41:38.865Z,99255.06
2022-10-19T11:44:28.148Z,99250.00
2022-10-19T11:47:13.427Z,99246.13
2022-10-19T11:49:51.880Z,99245.00
2022-10-19T11:52:37.217Z,99243.59
2022-10-19T11:55:27.147Z,99242.13
2022-10-19T11:58:39.436Z,99236.84
2022-10-19T12:01:42.080Z,99227.16
2022-10-19T12:04:14.715Z,99229.59
2022-10-19T12:06:46.025Z,99231.22
2022-10-19T12:09:30.820Z,99229.16
2022-10-19T12:12:23.013Z,99227.88
2022-10-19T12:14:56.946Z,99226.72
2022-10-19T12:17:33.468Z,99221.00
2022-10-19T12:20:06.439Z,99201.69
2022-10-19T12:22:35.138Z,99205.56
2022-10-19T12:25:01.961Z,99201.06
2022-10-19T12:27:37.398Z,99195.56
2022-10-19T12:30:18.748Z,99192.63
2022-10-19T12:33:09.126Z,99201.31
2022-10-19T12:35:54.294Z,99188.25
2022-10-19T12:38:29.176Z,99185.50
2022-10-19T12:41:19.771Z,99182.00
2022-10-19T12:44:09.150Z,99173.84
2022-10-19T12:46:42.980Z,99171.25
2022-10-19T12:49:31.258Z,99171.84
2022-10-19T12:52:01.713Z,99173.16
2022-10-19T12:54:31.149Z,99170.28
2022-10-19T12:57:00.460Z,99163.44
2022-10-19T12:59:35.860Z,99161.69
2022-10-19T13:02:05.773Z,99157.13
2022-10-19T13:04:35.847Z,99152.31
2022-10-19T13:07:10.561Z,99155.88
2022-10-19T13:09:45.810Z,99155.31
2022-10-19T13:12:21.544Z,99149.97
2022-10-19T13:14:51.419Z,99141.47
2022-10-19T13:17:49.136Z,99138.03
2022-10-19T13:20:15.656Z,99140.78
2022-10-19T13:22:46.108Z,99140.44
2022-10-19T13:25:23.717Z,99139.50
2022-10-19T13:27:52.709Z,99134.44
2022-10-19T13:30:38.468Z,99136.56
2022-10-19T13:33:28.410Z,99134.66
2022-10-19T13:36:01.000Z,99126.09
2022-10-19T13:38:30.971Z,99125.91
2022-10-19T13:41:06.814Z,99131.91
2022-10-19T13:43:39.521Z,99118.06
2022-10-19T13:46:08.842Z,99126.66
2022-10-19T13:48:44.287Z,99120.56
2022-10-19T13:51:40.126Z,99123.69
2022-10-19T13:54:20.477Z,99117.00
2022-10-19T13:57:11.916Z,99126.59
2022-10-19T14:00:10.343Z,99116.88
2022-10-19T14:02:58.149Z,99120.19
2022-10-19T14:06:05.013Z,99109.03
2022-10-19T14:09:10.553Z,99109.56
2022-10-19T14:11:41.283Z,99110.53
2022-10-19T14:14:10.512Z,99112.56
2022-10-19T14:17:03.070Z,99119.59
2022-10-19T14:19:47.208Z,99111.91
2022-10-19T14:22:21.721Z,99109.41
2022-10-19T14:24:48.197Z,99108.50
2022-10-19T14:27:23.061Z,99101.63
2022-10-19T14:29:53.545Z,99090.13
2022-10-19T14:32:26.110Z,99079.91
2022-10-19T14:34:53.830Z,99086.81
2022-10-19T14:37:26.817Z,99081.50
2022-10-19T14:40:03.904Z,99073.81
2022-10-19T14:42:57.714Z,99079.09
2022-10-19T14:45:29.917Z,99067.59
2022-10-19T14:47:56.331Z,99066.78
2022-10-19T14:50:45.073Z,99071.09
2022-10-19T14:53:32.903Z,99068.63
2022-10-19T14:56:06.057Z,99065.13
2022-10-19T14:58:39.810Z,99057.31
2022-10-19T15:01:07.070Z,99065.25
2022-10-19T15:03:33.891Z,99064.41
2022-10-19T15:06:04.849Z,99070.50
2022-10-19T15:08:34.858Z,99070.16
2022-10-19T15:11:01.459Z,99069.97
2022-10-19T15:13:33.529Z,99076.97
2022-10-19T15:16:00.215Z,99064.78
2022-10-19T15:18:48.308Z,99070.28
2022-10-19T15:21:21.054Z,99064.84
2022-10-19T15:23:52.347Z,99061.78
2022-10-19T15:26:24.783Z,99067.03
2022-10-19T15:28:52.060Z,99061.50
2022-10-19T15:31:39.111Z,99064.09
2022-10-19T15:34:05.930Z,99062.56
2022-10-19T15:36:32.808Z,99059.34
2022-10-19T15:39:18.088Z,99056.94
2022-10-19T15:41:50.099Z,99045.19
2022-10-19T15:44:33.877Z,99048.78
2022-10-19T15:47:15.373Z,99048.16
2022-10-19T15:49:41.740Z,99044.91
2022-10-19T15:52:18.915Z,99040.84
2022-10-19T15:54:52.702Z,99037.94
2022-10-19T15:57:28.002Z,99027.97
2022-10-19T15:59:56.959Z,99035.06
2022-10-19T16:02:25.146Z,99037.00
2022-10-19T16:04:55.343Z,99037.44
2022-10-19T16:07:29.282Z,99036.88
2022-10-19T16:09:56.431Z,99040.69
2022-10-19T16:12:24.278Z,99038.34
2022-10-19T16:14:50.850Z,99033.56
2022-10-19T16:17:17.529Z,99031.03
2022-10-19T16:19:44.904Z,99032.25
2022-10-19T16:22:12.902Z,99034.47
2022-10-19T16:24:39.518Z,99038.19
2022-10-19T16:27:07.011Z,99039.50
2022-10-19T16:29:34.721Z,99034.53
2022-10-19T16:32:01.440Z,99034.78
2022-10-19T16:34:28.028Z,99035.06
2022-10-19T16:36:54.583Z,99036.13
2022-10-19T16:39:21.118Z,99033.69
2022-10-19T16:41:47.682Z,99034.91
2022-10-19T16:44:14.215Z,99039.28
2022-10-19T16:46:40.706Z,99036.19
2022-10-19T16:49:07.159Z,99035.63
2022-10-19T16:51:39.560Z,99032.31
2022-10-19T16:54:08.339Z,99041.09
2022-10-19T16:56:35.762Z,99044.66
2022-10-19T16:59:05.310Z,99044.75
2022-10-19T17:01:33.161Z,99049.16
2022-10-19T17:04:00.381Z,99043.28
2022-10-19T17:06:28.008Z,99047.63
2022-10-19T17:11:44.700Z,99043.81
2022-10-19T17:14:12.834Z,99048.19
2022-10-19T17:16:40.140Z,99050.09
2022-10-19T17:19:08.190Z,99050.28
2022-10-19T17:21:38.502Z,99053.81
2022-10-19T17:24:13.845Z,99058.19
2022-10-19T17:26:45.100Z,99059.22
2022-10-19T17:29:14.074Z,99054.25
2022-10-19T17:31:41.697Z,99063.81
2022-10-19T17:34:09.318Z,99051.94
2022-10-19T17:39:09.129Z,99061.41
2022-10-19T17:41:35.816Z,99057.16
2022-10-19T17:44:04.201Z,99057.13
2022-10-19T17:46:32.540Z,99062.38
2022-10-19T17:49:00.600Z,99056.50
2022-10-19T17:51:29.627Z,99055.69
2022-10-19T17:54:00.182Z,99050.69
2022-10-19T17:56:27.607Z,99051.50
2022-10-19T17:58:54.423Z,99049.84
2022-10-19T18:01:22.572Z,99041.38
2022-10-19T18:03:50.126Z,99045.69
2022-10-19T18:06:19.452Z,99052.53
2022-10-19T18:08:48.675Z,99054.47
2022-10-19T18:11:18.297Z,99058.84
2022-10-19T18:13:45.260Z,99057.34
2022-10-19T18:16:15.502Z,99055.66
2022-10-19T18:18:45.908Z,99053.94
2022-10-19T18:21:15.406Z,99050.59
2022-10-19T18:23:42.056Z,99047.13
2022-10-19T18:26:14.969Z,99046.34
2022-10-19T18:28:42.394Z,99042.91
2022-10-19T18:31:29.151Z,99048.13
2022-10-19T18:33:56.809Z,99043.06
2022-10-19T18:36:23.293Z,99043.97
2022-10-19T18:38:51.854Z,99042.31
2022-10-19T18:41:18.404Z,99040.66
2022-10-19T18:43:49.590Z,99033.88
2022-10-19T18:46:19.140Z,99038.22
2022-10-19T18:48:45.661Z,99035.63
2022-10-19T18:51:13.103Z,99040.94
2022-10-19T18:54:06.436Z,99046.19
2022-10-19T18:59:14.936Z,99047.03
2022-10-19T19:01:41.602Z,99042.00
2022-10-19T19:04:09.508Z,99032.69
2022-10-19T19:06:37.260Z,99034.47
2022-10-19T19:09:07.047Z,99034.50
2022-10-19T19:11:36.913Z,99031.13
2022-10-19T19:14:12.317Z,99023.47
2022-10-19T19:16:39.740Z,99014.91
2022-10-19T19:19:07.412Z,99027.06
2022-10-19T19:21:36.512Z,99024.56
2022-10-19T19:24:05.512Z,99026.31
2022-10-19T19:26:34.892Z,99022.03
2022-10-19T19:29:01.493Z,99020.38
2022-10-19T19:31:28.109Z,99026.44
2022-10-19T19:33:54.589Z,99025.63
2022-10-19T19:36:21.143Z,99024.81
2022-10-19T19:38:50.487Z,99021.44
2022-10-19T19:41:17.505Z,99029.19
2022-10-19T19:43:44.336Z,99030.94
2022-10-19T19:46:13.817Z,99027.59
2022-10-19T19:48:42.513Z,99026.78
2022-10-19T19:51:11.452Z,99024.28
2022-10-19T19:53:40.094Z,99020.03
2022-10-19T19:56:08.209Z,99015.78
2022-10-19T19:58:34.738Z,99015.88
2022-10-19T20:01:12.446Z,99014.16
2022-10-19T20:03:40.011Z,99016.75
2022-10-19T20:06:06.787Z,99009.00
2022-10-19T20:08:33.748Z,99013.22
2022-10-19T20:11:06.154Z,99005.41
2022-10-19T20:13:33.050Z,99007.03
2022-10-19T20:16:02.513Z,99008.66
2022-10-19T20:18:29.613Z,99003.25
2022-10-19T20:21:01.478Z,99010.06
2022-10-19T20:23:29.164Z,99001.38
2022-10-19T20:25:56.358Z,99000.41
2022-10-19T20:28:25.082Z,99012.31
2022-10-19T20:31:05.266Z,99008.00
2022-10-19T20:33:33.888Z,99004.59
2022-10-19T20:36:09.329Z,98996.91
2022-10-19T20:38:38.624Z,98996.13
2022-10-19T20:41:09.625Z,98999.59
2022-10-19T20:43:37.479Z,99002.13
2022-10-19T20:46:13.237Z,99000.47
2022-10-19T20:48:40.358Z,99000.47
2022-10-19T20:51:30.892Z,98994.41
2022-10-19T20:54:00.227Z,99001.31
2022-10-19T20:56:31.780Z,99004.66
2022-10-19T21:01:34.813Z,98992.69
2022-10-19T21:04:03.318Z,98989.97
2022-10-19T21:06:31.658Z,98989.13
2022-10-19T21:08:59.206Z,98989.28
2022-10-19T21:11:31.303Z,98987.56
2022-10-19T21:14:00.224Z,98989.31
2022-10-19T21:16:28.362Z,98992.78
2022-10-19T21:18:55.090Z,98983.31
2022-10-19T21:21:23.839Z,98980.75
2022-10-19T21:23:54.001Z,98979.06
2022-10-19T21:26:20.537Z,98977.41
2022-10-19T21:28:48.734Z,98978.28
2022-10-19T21:31:16.483Z,98972.31
2022-10-19T21:33:43.743Z,98977.44
2022-10-19T21:36:12.353Z,98969.66
2022-10-19T21:38:38.769Z,98976.53
2022-10-19T21:41:13.996Z,98975.69
2022-10-19T21:43:40.445Z,98972.28
2022-10-19T21:46:10.674Z,98967.22
2022-10-19T21:48:37.205Z,98969.84
2022-10-19T21:51:17.116Z,98971.47
2022-10-19T21:53:44.245Z,98973.16
2022-10-19T21:56:10.698Z,98970.63
2022-10-19T21:58:37.141Z,98969.88
2022-10-19T22:01:05.297Z,98971.53
2022-10-19T22:03:31.810Z,98965.63
2022-10-19T22:05:58.537Z,98961.28
2022-10-19T22:08:25.232Z,98956.16
2022-10-19T22:10:51.761Z,98953.63
2022-10-19T22:13:18.507Z,98956.22
2022-10-19T22:15:45.113Z,98955.38
2022-10-19T22:18:11.664Z,98958.84
2022-10-19T22:20:39.518Z,98952.00
2022-10-19T22:23:07.723Z,98944.34
2022-10-19T22:25:35.337Z,98940.06
2022-10-19T22:28:02.123Z,98941.03
2022-10-19T22:30:28.560Z,98935.91
2022-10-19T22:32:55.803Z,98940.25
2022-10-19T22:35:22.485Z,98936.84
2022-10-19T22:37:48.924Z,98934.38
2022-10-19T22:40:15.414Z,98940.47
2022-10-19T22:42:41.867Z,98931.16
2022-10-19T22:45:08.504Z,98924.41
2022-10-19T22:47:34.937Z,98914.19
2022-10-19T22:50:01.380Z,98923.72
2022-10-19T22:52:27.851Z,98926.38
2022-10-19T22:54:54.323Z,98923.94
2022-10-19T22:57:20.737Z,98914.63
2022-10-19T22:59:47.215Z,98915.53
2022-10-19T23:02:13.624Z,98917.38
2022-10-19T23:04:40.053Z,98916.59
2022-10-19T23:07:06.490Z,98924.34
2022-10-19T23:09:32.925Z,98920.91
2022-10-19T23:11:59.313Z,98918.38
2022-10-19T23:14:25.776Z,98915.00
2022-10-19T23:16:52.253Z,98919.28
2022-10-19T23:19:18.900Z,98921.88
2022-10-19T23:21:45.388Z,98926.19
2022-10-19T23:24:11.821Z,98922.72
2022-10-19T23:26:38.254Z,98922.75
2022-10-19T23:29:04.677Z,98928.78
2022-10-19T23:31:32.752Z,98927.94
2022-10-19T23:33:59.166Z,98933.94
2022-10-19T23:36:28.554Z,98933.13
2022-10-19T23:38:56.129Z,98937.41
2022-10-19T23:41:22.772Z,98937.44
2022-10-19T23:43:49.688Z,98942.56
2022-10-19T23:46:16.186Z,98950.28
2022-10-19T23:48:43.066Z,98948.59
2022-10-19T23:51:12.378Z,98945.19
2022-10-19T23:53:41.319Z,98938.38
2022-10-19T23:56:19.561Z,98939.25
2022-10-19T23:58:46.813Z,98940.94
